sensor_id;sensor_type;location;lat;lon;timestamp;temperature;humidity
18384;DHT22;9318;48.644;9.456;2023-03-17T00:00:16;6.20;99.90
18384;DHT22;9318;48.644;9.456;2023-03-17T00:02:45;6.10;99.90
18384;DHT22;9318;48.644;9.456;2023-03-17T00:05:19;6.10;99.90
18384;DHT22;9318;48.644;9.456;2023-03-17T00:07:48;6.10;99.90
18384;DHT22;9318;48.644;9.456;2023-03-17T00:10:19;6.00;99.90
18384;DHT22;9318;48.644;9.456;2023-03-17T00:12:47;6.00;99.90
18384;DHT22;9318;48.644;9.456;2023-03-17T00:15:15;6.00;99.90
18384;DHT22;9318;48.644;9.456;2023-03-17T00:17:42;5.90;99.90
18384;DHT22;9318;48.644;9.456;2023-03-17T00:20:13;5.90;99.90
18384;DHT22;9318;48.644;9.456;2023-03-17T00:22:43;5.90;99.90
18384;DHT22;9318;48.644;9.456;2023-03-17T00:25:18;5.80;99.90
18384;DHT22;9318;48.644;9.456;2023-03-17T00:27:45;5.80;99.90
18384;DHT22;9318;48.644;9.456;2023-03-17T00:30:13;5.70;99.90
18384;DHT22;9318;48.644;9.456;2023-03-17T00:32:40;5.60;99.90
18384;DHT22;9318;48.644;9.456;2023-03-17T00:35:15;5.60;99.90
18384;DHT22;9318;48.644;9.456;2023-03-17T00:37:43;5.70;99.90
18384;DHT22;9318;48.644;9.456;2023-03-17T00:40:15;5.70;99.90
18384;DHT22;9318;48.644;9.456;2023-03-17T00:42:43;5.70;99.90
18384;DHT22;9318;48.644;9.456;2023-03-17T00:45:10;5.60;99.90
18384;DHT22;9318;48.644;9.456;2023-03-17T00:47:37;5.70;99.90
18384;DHT22;9318;48.644;9.456;2023-03-17T00:50:08;5.70;99.90
18384;DHT22;9318;48.644;9.456;2023-03-17T00:52:35;5.70;99.90
18384;DHT22;9318;48.644;9.456;2023-03-17T00:55:06;5.60;99.90
18384;DHT22;9318;48.644;9.456;2023-03-17T00:57:33;5.60;99.90
18384;DHT22;9318;48.644;9.456;2023-03-17T01:00:00;5.60;99.90
18384;DHT22;9318;48.644;9.456;2023-03-17T01:02:28;5.50;99.90
18384;DHT22;9318;48.644;9.456;2023-03-17T01:04:55;5.50;99.90
18384;DHT22;9318;48.644;9.456;2023-03-17T01:07:23;5.50;99.90
18384;DHT22;9318;48.644;9.456;2023-03-17T01:09:50;5.50;99.90
18384;DHT22;9318;48.644;9.456;2023-03-17T01:12:18;5.50;99.90
18384;DHT22;9318;48.644;9.456;2023-03-17T01:14:45;5.50;99.90
18384;DHT22;9318;48.644;9.456;2023-03-17T01:17:14;5.50;99.90
18384;DHT22;9318;48.644;9.456;2023-03-17T01:19:41;5.40;99.90
18384;DHT22;9318;48.644;9.456;2023-03-17T01:22:09;5.50;99.90
18384;DHT22;9318;48.644;9.456;2023-03-17T01:24:36;5.40;99.90
18384;DHT22;9318;48.644;9.456;2023-03-17T01:27:02;5.50;99.90
18384;DHT22;9318;48.644;9.456;2023-03-17T01:29:31;5.40;99.90
18384;DHT22;9318;48.644;9.456;2023-03-17T01:31:59;5.50;99.90
18384;DHT22;9318;48.644;9.456;2023-03-17T01:34:25;5.50;99.90
18384;DHT22;9318;48.644;9.456;2023-03-17T01:36:52;5.50;99.90
18384;DHT22;9318;48.644;9.456;2023-03-17T01:39:19;5.50;99.90
18384;DHT22;9318;48.644;9.456;2023-03-17T01:41:46;5.40;99.90
18384;DHT22;9318;48.644;9.456;2023-03-17T01:44:16;5.50;99.90
18384;DHT22;9318;48.644;9.456;2023-03-17T01:46:45;5.40;99.90
18384;DHT22;9318;48.644;9.456;2023-03-17T01:49:18;5.40;99.90
18384;DHT22;9318;48.644;9.456;2023-03-17T01:51:53;5.40;99.90
18384;DHT22;9318;48.644;9.456;2023-03-17T01:54:27;5.40;99.90
18384;DHT22;9318;48.644;9.456;2023-03-17T01:56:57;5.40;99.90
18384;DHT22;9318;48.644;9.456;2023-03-17T01:59:27;5.40;99.90
18384;DHT22;9318;48.644;9.456;2023-03-17T02:02:00;5.40;99.90
18384;DHT22;9318;48.644;9.456;2023-03-17T02:04:28;5.40;99.90
18384;DHT22;9318;48.644;9.456;2023-03-17T02:06:55;5.40;99.90
18384;DHT22;9318;48.644;9.456;2023-03-17T02:09:23;5.40;99.90
18384;DHT22;9318;48.644;9.456;2023-03-17T02:11:50;5.40;99.90
18384;DHT22;9318;48.644;9.456;2023-03-17T02:14:17;5.40;99.90
18384;DHT22;9318;48.644;9.456;2023-03-17T02:16:44;5.40;99.90
18384;DHT22;9318;48.644;9.456;2023-03-17T02:19:13;5.40;99.90
18384;DHT22;9318;48.644;9.456;2023-03-17T02:21:42;5.40;99.90
18384;DHT22;9318;48.644;9.456;2023-03-17T02:24:16;5.40;99.90
18384;DHT22;9318;48.644;9.456;2023-03-17T02:26:44;5.40;99.90
18384;DHT22;9318;48.644;9.456;2023-03-17T02:29:13;5.30;99.90
18384;DHT22;9318;48.644;9.456;2023-03-17T02:31:41;5.30;99.90
18384;DHT22;9318;48.644;9.456;2023-03-17T02:34:08;5.20;99.90
18384;DHT22;9318;48.644;9.456;2023-03-17T02:36:35;5.20;99.90
18384;DHT22;9318;48.644;9.456;2023-03-17T02:39:03;5.30;99.90
18384;DHT22;9318;48.644;9.456;2023-03-17T02:41:30;5.30;99.90
18384;DHT22;9318;48.644;9.456;2023-03-17T02:43:57;5.30;99.90
18384;DHT22;9318;48.644;9.456;2023-03-17T02:46:24;5.30;99.90
18384;DHT22;9318;48.644;9.456;2023-03-17T02:48:51;5.20;99.90
18384;DHT22;9318;48.644;9.456;2023-03-17T02:51:19;5.20;99.90
18384;DHT22;9318;48.644;9.456;2023-03-17T02:53:46;5.00;99.90
18384;DHT22;9318;48.644;9.456;2023-03-17T02:56:14;5.00;99.90
18384;DHT22;9318;48.644;9.456;2023-03-17T02:58:41;5.00;99.90
18384;DHT22;9318;48.644;9.456;2023-03-17T03:01:08;5.00;99.90
18384;DHT22;9318;48.644;9.456;2023-03-17T03:03:35;5.00;99.90
18384;DHT22;9318;48.644;9.456;2023-03-17T03:06:01;5.00;99.90
18384;DHT22;9318;48.644;9.456;2023-03-17T03:08:28;5.00;99.90
18384;DHT22;9318;48.644;9.456;2023-03-17T03:10:55;5.00;99.90
18384;DHT22;9318;48.644;9.456;2023-03-17T03:13:23;5.00;99.90
18384;DHT22;9318;48.644;9.456;2023-03-17T03:15:50;5.00;99.90
18384;DHT22;9318;48.644;9.456;2023-03-17T03:18:17;5.00;99.90
18384;DHT22;9318;48.644;9.456;2023-03-17T03:20:44;5.00;99.90
18384;DHT22;9318;48.644;9.456;2023-03-17T03:23:12;5.00;99.90
18384;DHT22;9318;48.644;9.456;2023-03-17T03:25:39;5.00;99.90
18384;DHT22;9318;48.644;9.456;2023-03-17T03:28:06;4.90;99.90
18384;DHT22;9318;48.644;9.456;2023-03-17T03:30:36;4.90;99.90
18384;DHT22;9318;48.644;9.456;2023-03-17T03:33:04;4.90;99.90
18384;DHT22;9318;48.644;9.456;2023-03-17T03:35:31;4.90;99.90
18384;DHT22;9318;48.644;9.456;2023-03-17T03:37:59;4.90;99.90
18384;DHT22;9318;48.644;9.456;2023-03-17T03:40:26;5.00;99.90
18384;DHT22;9318;48.644;9.456;2023-03-17T03:42:52;4.90;99.90
18384;DHT22;9318;48.644;9.456;2023-03-17T03:45:19;5.00;99.90
18384;DHT22;9318;48.644;9.456;2023-03-17T03:47:47;5.00;99.90
18384;DHT22;9318;48.644;9.456;2023-03-17T03:50:15;4.90;99.90
18384;DHT22;9318;48.644;9.456;2023-03-17T03:52:42;4.90;99.90
18384;DHT22;9318;48.644;9.456;2023-03-17T03:55:09;4.90;99.90
18384;DHT22;9318;48.644;9.456;2023-03-17T03:57:36;4.90;99.90
18384;DHT22;9318;48.644;9.456;2023-03-17T04:00:04;4.80;99.90
18384;DHT22;9318;48.644;9.456;2023-03-17T04:02:32;4.70;99.90
18384;DHT22;9318;48.644;9.456;2023-03-17T04:05:00;4.70;99.90
18384;DHT22;9318;48.644;9.456;2023-03-17T04:07:27;4.60;99.90
18384;DHT22;9318;48.644;9.456;2023-03-17T04:09:54;4.60;99.90
18384;DHT22;9318;48.644;9.456;2023-03-17T04:12:21;4.50;99.90
18384;DHT22;9318;48.644;9.456;2023-03-17T04:14:48;4.40;99.90
18384;DHT22;9318;48.644;9.456;2023-03-17T04:17:15;4.40;99.90
18384;DHT22;9318;48.644;9.456;2023-03-17T04:19:41;4.30;99.90
18384;DHT22;9318;48.644;9.456;2023-03-17T04:22:11;4.30;99.90
18384;DHT22;9318;48.644;9.456;2023-03-17T04:24:38;4.30;99.90
18384;DHT22;9318;48.644;9.456;2023-03-17T04:27:05;4.30;99.90
18384;DHT22;9318;48.644;9.456;2023-03-17T04:29:33;4.40;99.90
18384;DHT22;9318;48.644;9.456;2023-03-17T04:32:00;4.40;99.90
18384;DHT22;9318;48.644;9.456;2023-03-17T04:34:27;4.40;99.90
18384;DHT22;9318;48.644;9.456;2023-03-17T04:36:55;4.40;99.90
18384;DHT22;9318;48.644;9.456;2023-03-17T04:39:23;4.30;99.90
18384;DHT22;9318;48.644;9.456;2023-03-17T04:41:50;4.30;99.90
18384;DHT22;9318;48.644;9.456;2023-03-17T04:44:16;4.30;99.90
18384;DHT22;9318;48.644;9.456;2023-03-17T04:46:43;4.30;99.90
18384;DHT22;9318;48.644;9.456;2023-03-17T04:49:11;4.30;99.90
18384;DHT22;9318;48.644;9.456;2023-03-17T04:51:38;4.30;99.90
18384;DHT22;9318;48.644;9.456;2023-03-17T04:54:06;4.20;99.90
18384;DHT22;9318;48.644;9.456;2023-03-17T04:56:34;4.20;99.90
18384;DHT22;9318;48.644;9.456;2023-03-17T04:59:01;4.20;99.90
18384;DHT22;9318;48.644;9.456;2023-03-17T05:01:28;4.10;99.90
18384;DHT22;9318;48.644;9.456;2023-03-17T05:03:55;4.10;99.90
18384;DHT22;9318;48.644;9.456;2023-03-17T05:06:22;4.10;99.90
18384;DHT22;9318;48.644;9.456;2023-03-17T05:08:49;4.00;99.90
18384;DHT22;9318;48.644;9.456;2023-03-17T05:11:16;4.00;99.90
18384;DHT22;9318;48.644;9.456;2023-03-17T05:13:44;3.90;99.90
18384;DHT22;9318;48.644;9.456;2023-03-17T05:16:11;3.80;99.90
18384;DHT22;9318;48.644;9.456;2023-03-17T05:18:38;3.80;99.90
18384;DHT22;9318;48.644;9.456;2023-03-17T05:21:06;3.70;99.90
18384;DHT22;9318;48.644;9.456;2023-03-17T05:23:33;3.60;99.90
18384;DHT22;9318;48.644;9.456;2023-03-17T05:26:00;3.60;99.90
18384;DHT22;9318;48.644;9.456;2023-03-17T05:28:27;3.70;99.90
18384;DHT22;9318;48.644;9.456;2023-03-17T05:30:55;3.70;99.90
18384;DHT22;9318;48.644;9.456;2023-03-17T05:33:23;3.70;99.90
18384;DHT22;9318;48.644;9.456;2023-03-17T05:35:49;3.70;99.90
18384;DHT22;9318;48.644;9.456;2023-03-17T05:38:17;3.70;99.90
18384;DHT22;9318;48.644;9.456;2023-03-17T05:40:43;3.80;99.90
18384;DHT22;9318;48.644;9.456;2023-03-17T05:43:11;3.80;99.90
18384;DHT22;9318;48.644;9.456;2023-03-17T05:45:38;3.80;99.90
18384;DHT22;9318;48.644;9.456;2023-03-17T05:48:07;3.80;99.90
18384;DHT22;9318;48.644;9.456;2023-03-17T05:50:33;3.80;99.90
18384;DHT22;9318;48.644;9.456;2023-03-17T05:53:00;3.80;99.90
18384;DHT22;9318;48.644;9.456;2023-03-17T05:55:27;3.80;99.90
18384;DHT22;9318;48.644;9.456;2023-03-17T05:57:54;3.80;99.90
18384;DHT22;9318;48.644;9.456;2023-03-17T06:00:21;3.90;99.90
18384;DHT22;9318;48.644;9.456;2023-03-17T06:02:49;3.90;99.90
18384;DHT22;9318;48.644;9.456;2023-03-17T06:05:17;4.00;99.90
18384;DHT22;9318;48.644;9.456;2023-03-17T06:07:44;4.10;99.90
18384;DHT22;9318;48.644;9.456;2023-03-17T06:10:11;4.20;99.90
18384;DHT22;9318;48.644;9.456;2023-03-17T06:12:38;4.40;99.90
18384;DHT22;9318;48.644;9.456;2023-03-17T06:15:06;4.50;99.90
18384;DHT22;9318;48.644;9.456;2023-03-17T06:17:34;4.60;99.90
18384;DHT22;9318;48.644;9.456;2023-03-17T06:20:02;4.80;99.90
18384;DHT22;9318;48.644;9.456;2023-03-17T06:22:31;5.00;99.90
18384;DHT22;9318;48.644;9.456;2023-03-17T06:24:58;5.20;99.90
18384;DHT22;9318;48.644;9.456;2023-03-17T06:27:25;5.50;99.90
18384;DHT22;9318;48.644;9.456;2023-03-17T06:29:52;6.10;99.90
18384;DHT22;9318;48.644;9.456;2023-03-17T06:32:19;6.90;99.90
18384;DHT22;9318;48.644;9.456;2023-03-17T06:34:45;7.90;99.90
18384;DHT22;9318;48.644;9.456;2023-03-17T06:37:12;8.70;99.90
18384;DHT22;9318;48.644;9.456;2023-03-17T06:39:41;9.30;99.90
18384;DHT22;9318;48.644;9.456;2023-03-17T06:42:08;9.80;99.90
18384;DHT22;9318;48.644;9.456;2023-03-17T06:44:35;10.20;99.90
18384;DHT22;9318;48.644;9.456;2023-03-17T06:47:02;10.70;99.90
18384;DHT22;9318;48.644;9.456;2023-03-17T06:49:29;11.20;99.90
18384;DHT22;9318;48.644;9.456;2023-03-17T06:51:56;11.70;99.90
18384;DHT22;9318;48.644;9.456;2023-03-17T06:54:23;12.60;99.90
18384;DHT22;9318;48.644;9.456;2023-03-17T06:56:52;13.90;99.90
18384;DHT22;9318;48.644;9.456;2023-03-17T06:59:19;15.30;99.90
18384;DHT22;9318;48.644;9.456;2023-03-17T07:01:47;17.10;99.20
18384;DHT22;9318;48.644;9.456;2023-03-17T07:04:14;18.50;94.30
18384;DHT22;9318;48.644;9.456;2023-03-17T07:06:41;19.60;90.80
18384;DHT22;9318;48.644;9.456;2023-03-17T07:09:09;19.50;83.20
18384;DHT22;9318;48.644;9.456;2023-03-17T07:11:36;19.60;82.30
18384;DHT22;9318;48.644;9.456;2023-03-17T07:14:04;19.80;79.70
18384;DHT22;9318;48.644;9.456;2023-03-17T07:16:32;19.10;80.30
18384;DHT22;9318;48.644;9.456;2023-03-17T07:18:59;19.60;79.70
18384;DHT22;9318;48.644;9.456;2023-03-17T07:21:26;20.20;77.70
18384;DHT22;9318;48.644;9.456;2023-03-17T07:23:53;20.50;76.50
18384;DHT22;9318;48.644;9.456;2023-03-17T07:26:20;20.20;75.00
18384;DHT22;9318;48.644;9.456;2023-03-17T07:28:47;20.40;73.90
18384;DHT22;9318;48.644;9.456;2023-03-17T07:31:15;20.90;73.10
18384;DHT22;9318;48.644;9.456;2023-03-17T07:33:42;21.20;71.80
18384;DHT22;9318;48.644;9.456;2023-03-17T07:36:09;21.80;71.70
18384;DHT22;9318;48.644;9.456;2023-03-17T07:38:36;21.70;70.10
18384;DHT22;9318;48.644;9.456;2023-03-17T07:41:03;21.60;70.00
18384;DHT22;9318;48.644;9.456;2023-03-17T07:43:34;21.60;68.50
18384;DHT22;9318;48.644;9.456;2023-03-17T07:46:01;19.80;70.00
18384;DHT22;9318;48.644;9.456;2023-03-17T07:48:30;19.10;73.70
18384;DHT22;9318;48.644;9.456;2023-03-17T07:50:59;18.00;75.50
18384;DHT22;9318;48.644;9.456;2023-03-17T07:53:25;17.40;78.00
18384;DHT22;9318;48.644;9.456;2023-03-17T07:55:52;17.40;79.70
18384;DHT22;9318;48.644;9.456;2023-03-17T07:58:19;17.90;80.10
18384;DHT22;9318;48.644;9.456;2023-03-17T08:00:46;18.50;77.80
18384;DHT22;9318;48.644;9.456;2023-03-17T08:03:13;18.20;76.70
18384;DHT22;9318;48.644;9.456;2023-03-17T08:05:42;18.40;76.50
18384;DHT22;9318;48.644;9.456;2023-03-17T08:08:10;18.20;76.70
18384;DHT22;9318;48.644;9.456;2023-03-17T08:10:37;18.40;77.80
18384;DHT22;9318;48.644;9.456;2023-03-17T08:13:04;18.80;78.00
18384;DHT22;9318;48.644;9.456;2023-03-17T08:15:30;18.90;76.60
18384;DHT22;9318;48.644;9.456;2023-03-17T08:17:57;18.50;77.70
18384;DHT22;9318;48.644;9.456;2023-03-17T08:20:25;18.40;78.90
18384;DHT22;9318;48.644;9.456;2023-03-17T08:22:53;18.70;77.50
18384;DHT22;9318;48.644;9.456;2023-03-17T08:25:20;20.10;75.80
18384;DHT22;9318;48.644;9.456;2023-03-17T08:27:47;22.10;72.10
18384;DHT22;9318;48.644;9.456;2023-03-17T08:30:14;24.10;66.30
18384;DHT22;9318;48.644;9.456;2023-03-17T08:32:42;25.70;64.30
18384;DHT22;9318;48.644;9.456;2023-03-17T08:35:10;27.30;61.40
18384;DHT22;9318;48.644;9.456;2023-03-17T08:37:39;28.10;57.60
18384;DHT22;9318;48.644;9.456;2023-03-17T08:40:09;28.40;55.30
18384;DHT22;9318;48.644;9.456;2023-03-17T08:42:37;27.70;55.80
18384;DHT22;9318;48.644;9.456;2023-03-17T08:45:04;27.70;56.70
18384;DHT22;9318;48.644;9.456;2023-03-17T08:47:32;27.80;55.50
18384;DHT22;9318;48.644;9.456;2023-03-17T08:49:59;27.30;54.00
18384;DHT22;9318;48.644;9.456;2023-03-17T08:52:26;26.80;54.90
18384;DHT22;9318;48.644;9.456;2023-03-17T08:54:54;26.10;56.30
18384;DHT22;9318;48.644;9.456;2023-03-17T08:57:22;26.60;57.10
18384;DHT22;9318;48.644;9.456;2023-03-17T08:59:50;26.60;55.10
18384;DHT22;9318;48.644;9.456;2023-03-17T09:02:17;27.90;56.10
18384;DHT22;9318;48.644;9.456;2023-03-17T09:04:44;29.90;52.10
18384;DHT22;9318;48.644;9.456;2023-03-17T09:07:12;30.00;49.50
18384;DHT22;9318;48.644;9.456;2023-03-17T09:09:39;30.70;48.90
18384;DHT22;9318;48.644;9.456;2023-03-17T09:12:07;31.60;48.50
18384;DHT22;9318;48.644;9.456;2023-03-17T09:14:35;31.20;45.60
18384;DHT22;9318;48.644;9.456;2023-03-17T09:17:04;31.10;47.40
18384;DHT22;9318;48.644;9.456;2023-03-17T09:19:32;31.00;46.30
18384;DHT22;9318;48.644;9.456;2023-03-17T09:21:59;31.60;45.80
18384;DHT22;9318;48.644;9.456;2023-03-17T09:24:27;31.80;44.40
18384;DHT22;9318;48.644;9.456;2023-03-17T09:26:54;33.70;43.20
18384;DHT22;9318;48.644;9.456;2023-03-17T09:29:24;34.90;41.10
18384;DHT22;9318;48.644;9.456;2023-03-17T09:31:53;36.30;40.90
18384;DHT22;9318;48.644;9.456;2023-03-17T09:34:19;36.50;37.90
18384;DHT22;9318;48.644;9.456;2023-03-17T09:36:46;36.70;36.80
18384;DHT22;9318;48.644;9.456;2023-03-17T09:39:13;36.30;35.70
18384;DHT22;9318;48.644;9.456;2023-03-17T09:42:06;36.30;36.20
18384;DHT22;9318;48.644;9.456;2023-03-17T09:44:44;35.70;37.60
18384;DHT22;9318;48.644;9.456;2023-03-17T09:47:30;36.20;36.10
18384;DHT22;9318;48.644;9.456;2023-03-17T09:50:07;36.30;37.70
18384;DHT22;9318;48.644;9.456;2023-03-17T09:52:35;36.20;37.00
18384;DHT22;9318;48.644;9.456;2023-03-17T09:55:06;36.40;36.40
18384;DHT22;9318;48.644;9.456;2023-03-17T09:57:35;35.40;37.30
18384;DHT22;9318;48.644;9.456;2023-03-17T10:00:05;34.90;39.60
18384;DHT22;9318;48.644;9.456;2023-03-17T10:02:34;34.80;39.10
18384;DHT22;9318;48.644;9.456;2023-03-17T10:05:12;34.50;37.40
18384;DHT22;9318;48.644;9.456;2023-03-17T10:07:46;34.20;36.80
18384;DHT22;9318;48.644;9.456;2023-03-17T10:10:20;34.50;40.00
18384;DHT22;9318;48.644;9.456;2023-03-17T10:12:57;34.90;38.10
18384;DHT22;9318;48.644;9.456;2023-03-17T10:15:30;34.20;36.80
18384;DHT22;9318;48.644;9.456;2023-03-17T10:18:08;33.70;36.50
18384;DHT22;9318;48.644;9.456;2023-03-17T10:20:47;33.60;36.60
18384;DHT22;9318;48.644;9.456;2023-03-17T10:23:18;33.50;36.40
18384;DHT22;9318;48.644;9.456;2023-03-17T10:25:46;32.90;35.20
18384;DHT22;9318;48.644;9.456;2023-03-17T10:28:23;31.40;38.40
18384;DHT22;9318;48.644;9.456;2023-03-17T10:30:50;30.20;41.80
18384;DHT22;9318;48.644;9.456;2023-03-17T10:33:19;29.00;41.70
18384;DHT22;9318;48.644;9.456;2023-03-17T10:35:46;27.70;41.60
18384;DHT22;9318;48.644;9.456;2023-03-17T10:38:15;25.60;44.40
18384;DHT22;9318;48.644;9.456;2023-03-17T10:40:45;24.30;50.40
18384;DHT22;9318;48.644;9.456;2023-03-17T10:43:17;24.40;50.60
18384;DHT22;9318;48.644;9.456;2023-03-17T10:45:57;24.30;49.10
18384;DHT22;9318;48.644;9.456;2023-03-17T10:48:25;24.10;50.10
18384;DHT22;9318;48.644;9.456;2023-03-17T10:50:56;23.80;51.60
18384;DHT22;9318;48.644;9.456;2023-03-17T10:53:24;23.20;48.70
18384;DHT22;9318;48.644;9.456;2023-03-17T10:55:56;22.70;48.50
18384;DHT22;9318;48.644;9.456;2023-03-17T10:58:36;22.20;48.70
18384;DHT22;9318;48.644;9.456;2023-03-17T11:01:06;21.60;51.50
18384;DHT22;9318;48.644;9.456;2023-03-17T11:03:38;21.40;50.80
18384;DHT22;9318;48.644;9.456;2023-03-17T11:06:07;21.60;52.60
18384;DHT22;9318;48.644;9.456;2023-03-17T11:08:36;21.60;54.60
18384;DHT22;9318;48.644;9.456;2023-03-17T11:11:05;21.50;52.10
18384;DHT22;9318;48.644;9.456;2023-03-17T11:13:32;21.50;52.10
18384;DHT22;9318;48.644;9.456;2023-03-17T11:16:09;21.30;53.80
18384;DHT22;9318;48.644;9.456;2023-03-17T11:18:43;21.00;55.60
18384;DHT22;9318;48.644;9.456;2023-03-17T11:21:15;21.10;53.90
18384;DHT22;9318;48.644;9.456;2023-03-17T11:23:49;21.30;52.80
18384;DHT22;9318;48.644;9.456;2023-03-17T11:26:34;21.00;51.90
18384;DHT22;9318;48.644;9.456;2023-03-17T11:29:25;21.10;53.40
18384;DHT22;9318;48.644;9.456;2023-03-17T11:32:02;21.00;56.00
18384;DHT22;9318;48.644;9.456;2023-03-17T11:34:46;21.20;53.20
18384;DHT22;9318;48.644;9.456;2023-03-17T11:37:24;21.20;56.00
18384;DHT22;9318;48.644;9.456;2023-03-17T11:40:02;21.20;53.20
18384;DHT22;9318;48.644;9.456;2023-03-17T11:42:38;20.90;55.90
18384;DHT22;9318;48.644;9.456;2023-03-17T11:45:13;21.00;57.10
18384;DHT22;9318;48.644;9.456;2023-03-17T11:48:11;21.00;55.10
18384;DHT22;9318;48.644;9.456;2023-03-17T11:50:49;21.00;55.50
18384;DHT22;9318;48.644;9.456;2023-03-17T11:53:28;21.10;57.80
18384;DHT22;9318;48.644;9.456;2023-03-17T11:56:02;21.30;54.50
18384;DHT22;9318;48.644;9.456;2023-03-17T11:58:33;21.40;55.40
18384;DHT22;9318;48.644;9.456;2023-03-17T12:01:04;21.40;53.70
18384;DHT22;9318;48.644;9.456;2023-03-17T12:03:37;21.40;53.50
18384;DHT22;9318;48.644;9.456;2023-03-17T12:06:13;21.50;55.30
18384;DHT22;9318;48.644;9.456;2023-03-17T12:08:43;21.70;52.30
18384;DHT22;9318;48.644;9.456;2023-03-17T12:11:13;21.80;56.50
18384;DHT22;9318;48.644;9.456;2023-03-17T12:13:44;21.80;57.10
18384;DHT22;9318;48.644;9.456;2023-03-17T12:16:14;21.90;52.90
18384;DHT22;9318;48.644;9.456;2023-03-17T12:18:48;21.90;55.90
18384;DHT22;9318;48.644;9.456;2023-03-17T12:21:24;21.90;55.50
18384;DHT22;9318;48.644;9.456;2023-03-17T12:23:58;21.90;51.20
18384;DHT22;9318;48.644;9.456;2023-03-17T12:26:32;22.00;55.90
18384;DHT22;9318;48.644;9.456;2023-03-17T12:29:04;22.00;54.50
18384;DHT22;9318;48.644;9.456;2023-03-17T12:31:40;22.00;55.30
18384;DHT22;9318;48.644;9.456;2023-03-17T12:34:13;21.80;51.70
18384;DHT22;9318;48.644;9.456;2023-03-17T12:36:44;21.70;52.40
18384;DHT22;9318;48.644;9.456;2023-03-17T12:39:13;21.80;54.50
18384;DHT22;9318;48.644;9.456;2023-03-17T12:41:55;21.90;55.40
18384;DHT22;9318;48.644;9.456;2023-03-17T12:44:36;22.10;56.00
18384;DHT22;9318;48.644;9.456;2023-03-17T12:47:32;22.20;51.60
18384;DHT22;9318;48.644;9.456;2023-03-17T12:53:16;21.80;52.80
18384;DHT22;9318;48.644;9.456;2023-03-17T12:55:49;22.00;58.20
18384;DHT22;9318;48.644;9.456;2023-03-17T12:58:27;22.10;54.50
18384;DHT22;9318;48.644;9.456;2023-03-17T13:00:58;22.20;54.30
18384;DHT22;9318;48.644;9.456;2023-03-17T13:03:31;22.10;51.60
18384;DHT22;9318;48.644;9.456;2023-03-17T13:06:00;21.90;50.80
18384;DHT22;9318;48.644;9.456;2023-03-17T13:08:31;22.10;50.80
18384;DHT22;9318;48.644;9.456;2023-03-17T13:11:14;22.10;50.10
18384;DHT22;9318;48.644;9.456;2023-03-17T13:13:46;22.00;49.50
18384;DHT22;9318;48.644;9.456;2023-03-17T13:16:28;22.10;50.60
18384;DHT22;9318;48.644;9.456;2023-03-17T13:19:20;22.30;54.30
18384;DHT22;9318;48.644;9.456;2023-03-17T13:21:59;22.20;51.30
18384;DHT22;9318;48.644;9.456;2023-03-17T13:24:46;22.30;54.80
18384;DHT22;9318;48.644;9.456;2023-03-17T13:27:14;22.30;50.00
18384;DHT22;9318;48.644;9.456;2023-03-17T13:33:01;22.40;53.40
18384;DHT22;9318;48.644;9.456;2023-03-17T13:35:49;22.50;49.90
18384;DHT22;9318;48.644;9.456;2023-03-17T13:38:32;22.60;53.30
18384;DHT22;9318;48.644;9.456;2023-03-17T13:41:31;22.50;51.50
18384;DHT22;9318;48.644;9.456;2023-03-17T13:44:23;22.20;51.80
18384;DHT22;9318;48.644;9.456;2023-03-17T13:46:55;21.40;49.20
18384;DHT22;9318;48.644;9.456;2023-03-17T13:49:34;21.40;49.80
18384;DHT22;9318;48.644;9.456;2023-03-17T13:52:07;21.40;48.10
18384;DHT22;9318;48.644;9.456;2023-03-17T13:54:40;21.40;49.20
18384;DHT22;9318;48.644;9.456;2023-03-17T13:57:24;21.50;48.90
18384;DHT22;9318;48.644;9.456;2023-03-17T13:59:58;21.70;53.90
18384;DHT22;9318;48.644;9.456;2023-03-17T14:02:28;22.00;51.90
18384;DHT22;9318;48.644;9.456;2023-03-17T14:04:58;22.10;50.70
18384;DHT22;9318;48.644;9.456;2023-03-17T14:07:29;22.10;48.90
18384;DHT22;9318;48.644;9.456;2023-03-17T14:10:12;21.80;49.00
18384;DHT22;9318;48.644;9.456;2023-03-17T14:12:45;21.70;49.50
18384;DHT22;9318;48.644;9.456;2023-03-17T14:15:20;21.80;50.20
18384;DHT22;9318;48.644;9.456;2023-03-17T14:17:51;22.00;50.40
18384;DHT22;9318;48.644;9.456;2023-03-17T14:20:21;22.20;48.60
18384;DHT22;9318;48.644;9.456;2023-03-17T14:22:53;22.40;48.00
18384;DHT22;9318;48.644;9.456;2023-03-17T14:25:23;22.50;49.10
18384;DHT22;9318;48.644;9.456;2023-03-17T14:27:53;22.50;50.10
18384;DHT22;9318;48.644;9.456;2023-03-17T14:30:22;22.40;48.60
18384;DHT22;9318;48.644;9.456;2023-03-17T14:32:57;22.20;48.00
18384;DHT22;9318;48.644;9.456;2023-03-17T14:35:28;22.00;50.60
18384;DHT22;9318;48.644;9.456;2023-03-17T14:37:56;22.00;57.10
18384;DHT22;9318;48.644;9.456;2023-03-17T14:40:24;22.00;55.50
18384;DHT22;9318;48.644;9.456;2023-03-17T14:42:54;21.90;53.30
18384;DHT22;9318;48.644;9.456;2023-03-17T14:45:27;21.90;51.10
18384;DHT22;9318;48.644;9.456;2023-03-17T14:47:55;21.80;53.70
18384;DHT22;9318;48.644;9.456;2023-03-17T14:50:25;21.60;52.20
18384;DHT22;9318;48.644;9.456;2023-03-17T14:52:52;21.50;52.40
18384;DHT22;9318;48.644;9.456;2023-03-17T14:55:20;21.10;53.10
18384;DHT22;9318;48.644;9.456;2023-03-17T14:57:49;21.00;53.60
18384;DHT22;9318;48.644;9.456;2023-03-17T15:00:36;21.00;52.90
18384;DHT22;9318;48.644;9.456;2023-03-17T15:03:16;20.90;53.60
18384;DHT22;9318;48.644;9.456;2023-03-17T15:05:44;20.90;53.80
18384;DHT22;9318;48.644;9.456;2023-03-17T15:08:39;20.70;56.10
18384;DHT22;9318;48.644;9.456;2023-03-17T15:11:13;20.70;56.40
18384;DHT22;9318;48.644;9.456;2023-03-17T15:13:41;20.70;54.90
18384;DHT22;9318;48.644;9.456;2023-03-17T15:16:17;20.60;54.80
18384;DHT22;9318;48.644;9.456;2023-03-17T15:18:46;20.40;58.00
18384;DHT22;9318;48.644;9.456;2023-03-17T15:21:22;20.50;56.40
18384;DHT22;9318;48.644;9.456;2023-03-17T15:23:49;20.50;59.20
18384;DHT22;9318;48.644;9.456;2023-03-17T15:26:28;20.40;56.50
18384;DHT22;9318;48.644;9.456;2023-03-17T15:28:57;20.30;57.30
18384;DHT22;9318;48.644;9.456;2023-03-17T15:31:25;20.20;57.00
18384;DHT22;9318;48.644;9.456;2023-03-17T15:33:55;20.20;58.00
18384;DHT22;9318;48.644;9.456;2023-03-17T15:36:22;20.20;57.80
18384;DHT22;9318;48.644;9.456;2023-03-17T15:38:48;20.20;60.50
18384;DHT22;9318;48.644;9.456;2023-03-17T15:41:16;20.20;58.20
18384;DHT22;9318;48.644;9.456;2023-03-17T15:43:43;20.10;57.00
18384;DHT22;9318;48.644;9.456;2023-03-17T15:46:16;20.10;57.80
18384;DHT22;9318;48.644;9.456;2023-03-17T15:48:46;20.00;56.20
18384;DHT22;9318;48.644;9.456;2023-03-17T15:51:13;19.90;56.10
18384;DHT22;9318;48.644;9.456;2023-03-17T15:53:40;19.80;56.30
18384;DHT22;9318;48.644;9.456;2023-03-17T15:56:13;19.80;57.10
18384;DHT22;9318;48.644;9.456;2023-03-17T15:58:40;19.60;57.50
18384;DHT22;9318;48.644;9.456;2023-03-17T16:01:09;19.60;58.00
18384;DHT22;9318;48.644;9.456;2023-03-17T16:03:37;19.50;58.70
18384;DHT22;9318;48.644;9.456;2023-03-17T16:06:14;19.50;59.50
18384;DHT22;9318;48.644;9.456;2023-03-17T16:08:41;19.40;60.70
18384;DHT22;9318;48.644;9.456;2023-03-17T16:11:13;19.30;61.30
18384;DHT22;9318;48.644;9.456;2023-03-17T16:13:41;19.30;61.50
18384;DHT22;9318;48.644;9.456;2023-03-17T16:16:16;19.20;61.50